KGGG/GGG METAR and TAF weather

Enter ICAO airport designator
Station Type Date Time Source
KGGG METAR 2021/08/04 19:53 UTC NOAA

KGGG 041953Z 10006KT 7SM HZ FEW044 30/19 A3004 RMK AO2 SLP164 T03000189


Station Type Date Time Source
KGGG Decoded METAR 2021/08/04 19:53 UTC NOAA

LONGVIEW GREGG COUNTY AIRPORT , TX, United States (KGGG) 32-23N 094-43W 107M
Aug 04, 2021 - 03:53 PM EDT / 2021.08.04 1953 UTC
Wind: from the E (100 degrees) at 7 MPH (6 KT):0
Visibility: 7 mile(s):0
Sky conditions: mostly clear
Weather: haze
Temperature: 86.0 F (30.0 C)
Dew Point: 66.0 F (18.9 C)
Relative Humidity: 51%
Pressure (altimeter): 30.04 in. Hg (1017 hPa)
ob: KGGG 041953Z 10006KT 7SM HZ FEW044 30/19 A3004 RMK AO2 SLP164 T03000189
cycle: 20

Station Type Date Time Source
KGGG TAF 2021/08/04 18:42 UTC NOAA

TAF KGGG 041739Z 0418/0518 07006KT P6SM FEW040 SCT250
FM050100 VRB03KT P6SM FEW250
FM051500 13005KT P6SM FEW030 SCT250

Example: see airport list